createdAt,value
2017-01-21T00:00:58.649Z,1028.7
2017-01-21T00:02:10.045Z,1028.73
2017-01-21T00:03:21.444Z,1028.68
2017-01-21T00:04:32.887Z,1028.69
2017-01-21T00:05:44.282Z,1028.67
2017-01-21T00:06:55.671Z,1028.62
2017-01-21T00:08:07.069Z,1028.64
2017-01-21T00:09:18.468Z,1028.65
2017-01-21T00:10:29.907Z,1028.66
2017-01-21T00:11:41.312Z,1028.63
2017-01-21T00:12:52.710Z,1028.59
2017-01-21T00:14:04.106Z,1028.58
2017-01-21T00:15:15.494Z,1028.51
2017-01-21T00:16:26.940Z,1028.55
2017-01-21T00:17:38.339Z,1028.52
2017-01-21T00:18:49.737Z,1028.5
2017-01-21T00:20:01.127Z,1028.52
2017-01-21T00:21:12.541Z,1028.5
2017-01-21T00:22:23.981Z,1028.5
2017-01-21T00:23:35.378Z,1028.5
2017-01-21T00:24:46.982Z,1028.48
2017-01-21T00:25:58.384Z,1028.5
2017-01-21T00:27:09.782Z,1028.41
2017-01-21T00:28:21.227Z,1028.45
2017-01-21T00:29:32.825Z,1028.43
2017-01-21T00:30:44.222Z,1028.4
2017-01-21T00:31:55.613Z,1028.38
2017-01-21T00:33:07.016Z,1028.39
2017-01-21T00:34:18.460Z,1028.42
2017-01-21T00:35:29.856Z,1028.37
2017-01-21T00:36:41.275Z,1028.34
2017-01-21T00:37:52.667Z,1028.38
2017-01-21T00:39:04.065Z,1028.35
2017-01-21T00:40:15.709Z,1028.38
2017-01-21T00:41:27.098Z,1028.28
2017-01-21T00:42:38.495Z,1028.3
2017-01-21T00:43:49.896Z,1028.28
2017-01-21T00:45:01.290Z,1028.25
2017-01-21T00:46:12.735Z,1028.26
2017-01-21T00:47:24.127Z,1028.25
2017-01-21T00:48:35.526Z,1028.25
2017-01-21T00:49:46.917Z,1028.18
2017-01-21T00:50:58.314Z,1028.22
2017-01-21T00:52:09.753Z,1028.21
2017-01-21T00:53:21.159Z,1028.2
2017-01-21T00:54:32.754Z,1028.23
2017-01-21T00:55:44.152Z,1028.17
2017-01-21T00:56:55.548Z,1028.19
2017-01-21T00:58:06.992Z,1028.21
2017-01-21T00:59:18.390Z,1028.17
2017-01-21T01:00:29.788Z,1028.2
2017-01-21T01:01:41.378Z,1028.18
2017-01-21T01:02:52.772Z,1028.15
2017-01-21T01:04:04.226Z,1028.19
2017-01-21T01:05:15.628Z,1028.2
2017-01-21T01:06:27.021Z,1028.17
2017-01-21T01:07:38.413Z,1028.17
2017-01-21T01:08:49.808Z,1028.16
2017-01-21T01:10:01.253Z,1028.12
2017-01-21T01:11:12.651Z,1028.12
2017-01-21T01:12:24.062Z,1028.19
2017-01-21T01:13:35.464Z,1028.13
2017-01-21T01:14:46.863Z,1028.1
2017-01-21T01:15:58.310Z,1028.12
2017-01-21T01:17:09.706Z,1028.15
2017-01-21T01:18:21.109Z,1028.14
2017-01-21T01:19:32.495Z,1028.13
2017-01-21T01:20:43.882Z,1028.15
2017-01-21T01:21:55.335Z,1028.11
2017-01-21T01:23:06.933Z,1028.11
2017-01-21T01:24:18.317Z,1028.14
2017-01-21T01:25:29.714Z,1028.12
2017-01-21T01:26:41.508Z,1028.16
2017-01-21T01:27:53.158Z,1028.14
2017-01-21T01:29:04.557Z,1028.18
2017-01-21T01:30:15.954Z,1028.16
2017-01-21T01:31:27.342Z,1028.16
2017-01-21T01:32:38.967Z,1028.16
2017-01-21T01:33:50.411Z,1028.11
2017-01-21T01:35:01.806Z,1028.11
2017-01-21T01:36:13.198Z,1028.14
2017-01-21T01:37:24.591Z,1028.13
2017-01-21T01:38:35.983Z,1028.14
2017-01-21T01:39:47.426Z,1028.11
2017-01-21T01:40:58.812Z,1028.11
2017-01-21T01:42:10.211Z,1028.13
2017-01-21T01:43:21.637Z,1028.09
2017-01-21T01:44:33.035Z,1028.18
2017-01-21T01:45:44.499Z,1028.15
2017-01-21T01:46:55.894Z,1028.15
2017-01-21T01:48:07.296Z,1028.14
2017-01-21T01:49:18.706Z,1028.14
2017-01-21T01:50:30.104Z,1028.14
2017-01-21T01:51:41.756Z,1028.12
2017-01-21T01:52:53.151Z,1028.18
2017-01-21T01:54:04.542Z,1028.12
2017-01-21T01:55:15.931Z,1028.13
2017-01-21T01:56:27.535Z,1028.13
2017-01-21T01:57:38.979Z,1028.09
2017-01-21T01:58:50.372Z,1028.09
2017-01-21T02:00:01.765Z,1028.14
2017-01-21T02:01:13.153Z,1028.1
2017-01-21T02:02:24.573Z,1028.06
2017-01-21T02:03:36.016Z,1028.13
2017-01-21T02:04:47.415Z,1028.09
2017-01-21T02:05:58.804Z,1028.09
2017-01-21T02:07:10.194Z,1028.12
2017-01-21T02:08:21.592Z,1028.09
2017-01-21T02:09:33.036Z,1028.05
2017-01-21T02:10:44.433Z,1028.02
2017-01-21T02:11:55.834Z,1028.05
2017-01-21T02:13:07.428Z,1028.02
2017-01-21T02:14:18.847Z,1028.05
2017-01-21T02:15:30.485Z,1028.01
2017-01-21T02:16:41.881Z,1028.04
2017-01-21T02:17:53.277Z,1028.02
2017-01-21T02:19:04.672Z,1028.03
2017-01-21T02:20:16.070Z,1028.02
2017-01-21T02:21:27.515Z,1028.04
2017-01-21T02:22:38.909Z,1028.03
2017-01-21T02:23:50.506Z,1028.02
2017-01-21T02:25:01.900Z,1028.04
2017-01-21T02:26:13.299Z,1028.03
2017-01-21T02:27:24.744Z,1028.02
2017-01-21T02:28:36.145Z,1028
2017-01-21T02:29:47.541Z,1028.01
2017-01-21T02:30:58.940Z,1028.01
2017-01-21T02:32:10.328Z,1028.02
2017-01-21T02:33:21.976Z,1028.02
2017-01-21T02:34:33.580Z,1028.04
2017-01-21T02:35:44.972Z,1027.98
2017-01-21T02:36:56.361Z,1027.95
2017-01-21T02:38:07.951Z,1027.99
2017-01-21T02:39:19.589Z,1027.98
2017-01-21T02:40:31.180Z,1027.93
2017-01-21T02:41:42.581Z,1027.93
2017-01-21T02:42:53.977Z,1027.97
2017-01-21T02:44:05.571Z,1027.97
2017-01-21T02:45:17.021Z,1027.92
2017-01-21T02:46:28.612Z,1027.89
2017-01-21T02:47:40.007Z,1027.89
2017-01-21T02:48:51.406Z,1027.91
2017-01-21T02:50:02.802Z,1027.91
2017-01-21T02:51:14.648Z,1027.9
2017-01-21T02:52:26.038Z,1027.91
2017-01-21T02:53:37.434Z,1027.93
2017-01-21T02:54:48.824Z,1027.9
2017-01-21T02:56:00.220Z,1027.88
2017-01-21T02:57:11.663Z,1027.88
2017-01-21T02:58:23.061Z,1027.86
2017-01-21T02:59:34.455Z,1027.88
2017-01-21T03:00:46.248Z,1027.89
2017-01-21T03:01:57.649Z,1027.9
2017-01-21T03:03:09.086Z,1027.89
2017-01-21T03:04:20.476Z,1027.9
2017-01-21T03:05:31.868Z,1027.9
2017-01-21T03:06:43.291Z,1027.9
2017-01-21T03:07:54.689Z,1027.89
2017-01-21T03:09:06.143Z,1027.84
2017-01-21T03:10:17.539Z,1027.86
2017-01-21T03:11:29.139Z,1027.82
2017-01-21T03:12:40.546Z,1027.85
2017-01-21T03:13:51.944Z,1027.82
2017-01-21T03:15:03.399Z,1027.85
2017-01-21T03:16:14.793Z,1027.85
2017-01-21T03:17:26.186Z,1027.8
2017-01-21T03:18:37.582Z,1027.81
2017-01-21T03:19:48.976Z,1027.78
2017-01-21T03:21:00.420Z,1027.77
2017-01-21T03:22:11.816Z,1027.75
2017-01-21T03:23:23.211Z,1027.79
2017-01-21T03:24:34.607Z,1027.78
2017-01-21T03:25:45.997Z,1027.77
2017-01-21T03:26:57.439Z,1027.79
2017-01-21T03:28:08.837Z,1027.77
2017-01-21T03:29:20.230Z,1027.72
2017-01-21T03:30:31.616Z,1027.76
2017-01-21T03:31:43.205Z,1027.7
2017-01-21T03:32:54.645Z,1027.71
2017-01-21T03:34:06.040Z,1027.66
2017-01-21T03:35:17.445Z,1027.66
2017-01-21T03:36:28.846Z,1027.64
2017-01-21T03:37:40.242Z,1027.68
2017-01-21T03:38:51.691Z,1027.66
2017-01-21T03:40:03.086Z,1027.64
2017-01-21T03:41:14.486Z,1027.67
2017-01-21T03:42:25.875Z,1027.64
2017-01-21T03:43:37.279Z,1027.62
2017-01-21T03:44:48.728Z,1027.63
2017-01-21T03:46:00.120Z,1027.63
2017-01-21T03:47:11.543Z,1027.63
2017-01-21T03:48:22.934Z,1027.58
2017-01-21T03:49:34.332Z,1027.62
2017-01-21T03:50:45.766Z,1027.57
2017-01-21T03:51:57.164Z,1027.56
2017-01-21T03:53:08.549Z,1027.55
2017-01-21T03:54:19.941Z,1027.54
2017-01-21T03:55:31.331Z,1027.56
2017-01-21T03:56:42.774Z,1027.61
2017-01-21T03:57:54.165Z,1027.59
2017-01-21T03:59:05.758Z,1027.53
2017-01-21T04:00:17.157Z,1027.55
2017-01-21T04:01:28.550Z,1027.52
2017-01-21T04:02:39.997Z,1027.48
2017-01-21T04:03:51.388Z,1027.49
2017-01-21T04:05:02.779Z,1027.48
2017-01-21T04:06:14.169Z,1027.49
2017-01-21T04:07:25.566Z,1027.43
2017-01-21T04:08:37.209Z,1027.41
2017-01-21T04:09:48.615Z,1027.43
2017-01-21T04:11:00.008Z,1027.43
2017-01-21T04:12:11.431Z,1027.39
2017-01-21T04:13:22.831Z,1027.39
2017-01-21T04:14:34.269Z,1027.4
2017-01-21T04:15:45.665Z,1027.36
2017-01-21T04:16:57.064Z,1027.37
2017-01-21T04:18:08.656Z,1027.34
2017-01-21T04:19:20.248Z,1027.37
2017-01-21T04:20:31.693Z,1027.35
2017-01-21T04:21:43.482Z,1027.36
2017-01-21T04:22:54.868Z,1027.39
2017-01-21T04:24:06.266Z,1027.38
2017-01-21T04:25:17.669Z,1027.32
2017-01-21T04:26:29.316Z,1027.35
2017-01-21T04:27:40.713Z,1027.3
2017-01-21T04:28:52.097Z,1027.33
2017-01-21T04:30:03.897Z,1027.31
2017-01-21T04:31:15.286Z,1027.29
2017-01-21T04:32:26.927Z,1027.31
2017-01-21T04:33:38.322Z,1027.26
2017-01-21T04:34:49.717Z,1027.24
2017-01-21T04:36:01.107Z,1027.21
2017-01-21T04:37:12.520Z,1027.23
2017-01-21T04:38:23.966Z,1027.22
2017-01-21T04:39:35.356Z,1027.16
2017-01-21T04:40:47.151Z,1027.17
2017-01-21T04:41:58.549Z,1027.16
2017-01-21T04:43:09.945Z,1027.18
2017-01-21T04:44:21.384Z,1027.16
2017-01-21T04:45:32.773Z,1027.18
2017-01-21T04:46:44.160Z,1027.17
2017-01-21T04:47:55.557Z,1027.16
2017-01-21T04:49:06.975Z,1027.17
2017-01-21T04:50:18.419Z,1027.18
2017-01-21T04:51:29.809Z,1027.18
2017-01-21T04:52:41.205Z,1027.17
2017-01-21T04:53:52.593Z,1027.18
2017-01-21T04:55:04.009Z,1027.17
2017-01-21T04:56:15.448Z,1027.16
2017-01-21T04:57:26.842Z,1027.18
2017-01-21T04:58:38.236Z,1027.18
2017-01-21T04:59:49.633Z,1027.2
2017-01-21T05:01:01.025Z,1027.18
2017-01-21T05:02:12.479Z,1027.14
2017-01-21T05:03:23.882Z,1027.1
2017-01-21T05:04:35.278Z,1027.11
2017-01-21T05:05:46.873Z,1027.07
2017-01-21T05:06:58.264Z,1027.07
2017-01-21T05:08:09.695Z,1027.09
2017-01-21T05:09:21.085Z,1027.07
2017-01-21T05:10:32.683Z,1027.09
2017-01-21T05:11:44.276Z,1027.08
2017-01-21T05:12:55.668Z,1027.05
2017-01-21T05:14:07.110Z,1027.1
2017-01-21T05:15:18.506Z,1027.08
2017-01-21T05:16:29.900Z,1027.09
2017-01-21T05:17:41.299Z,1027.12
2017-01-21T05:18:52.906Z,1027.14
2017-01-21T05:20:04.356Z,1027.12
2017-01-21T05:21:15.749Z,1027.11
2017-01-21T05:22:27.160Z,1027.09
2017-01-21T05:23:38.555Z,1027.07
2017-01-21T05:24:49.944Z,1027.09
2017-01-21T05:26:01.392Z,1027.11
2017-01-21T05:27:12.785Z,1027.12
2017-01-21T05:28:24.178Z,1027.11
2017-01-21T05:29:35.567Z,1027.11
2017-01-21T05:30:47.189Z,1027.1
2017-01-21T05:31:58.633Z,1027.1
2017-01-21T05:33:10.024Z,1027.08
2017-01-21T05:34:21.414Z,1027.07
2017-01-21T05:35:32.806Z,1027.07
2017-01-21T05:36:44.195Z,1027.06
2017-01-21T05:37:55.834Z,1027.09
2017-01-21T05:39:07.225Z,1027.09
2017-01-21T05:40:18.616Z,1027.08
2017-01-21T05:41:30.011Z,1027.07
2017-01-21T05:42:41.409Z,1027.04
2017-01-21T05:43:52.851Z,1027.04
2017-01-21T05:45:04.243Z,1027.01
2017-01-21T05:46:15.630Z,1026.99
2017-01-21T05:47:27.016Z,1027.03
2017-01-21T05:48:38.407Z,1027.01
2017-01-21T05:49:49.844Z,1027.01
2017-01-21T05:51:01.235Z,1026.99
2017-01-21T05:52:12.627Z,1026.98
2017-01-21T05:53:24.020Z,1026.99
2017-01-21T05:54:35.816Z,1027
2017-01-21T05:55:47.266Z,1026.99
2017-01-21T05:56:58.660Z,1026.95
2017-01-21T05:58:10.058Z,1027
2017-01-21T05:59:21.445Z,1026.98
2017-01-21T06:00:33.048Z,1027
2017-01-21T06:01:44.487Z,1027.01
2017-01-21T06:02:56.082Z,1027
2017-01-21T06:04:07.474Z,1027
2017-01-21T06:05:18.872Z,1026.99
2017-01-21T06:06:30.268Z,1026.97
2017-01-21T06:07:41.915Z,1026.9
2017-01-21T06:08:53.309Z,1026.91
2017-01-21T06:10:04.702Z,1026.89
2017-01-21T06:11:16.092Z,1026.9
2017-01-21T06:12:27.685Z,1026.92
2017-01-21T06:13:39.121Z,1026.92
2017-01-21T06:14:50.518Z,1026.89
2017-01-21T06:16:01.908Z,1026.91
2017-01-21T06:17:13.503Z,1026.92
2017-01-21T06:18:24.902Z,1026.91
2017-01-21T06:19:36.383Z,1026.94
2017-01-21T06:20:47.777Z,1026.92
2017-01-21T06:21:59.179Z,1026.87
2017-01-21T06:23:10.572Z,1026.87
2017-01-21T06:24:21.961Z,1026.92
2017-01-21T06:25:33.605Z,1026.82
2017-01-21T06:26:44.995Z,1026.82
2017-01-21T06:27:56.389Z,1026.9
2017-01-21T06:29:07.785Z,1026.91
2017-01-21T06:30:19.176Z,1026.89
2017-01-21T06:31:30.615Z,1026.94
2017-01-21T06:32:42.003Z,1026.95
2017-01-21T06:33:53.398Z,1026.95
2017-01-21T06:35:04.784Z,1026.95
2017-01-21T06:36:16.180Z,1026.94
2017-01-21T06:37:27.625Z,1026.88
2017-01-21T06:38:39.012Z,1026.91
2017-01-21T06:39:50.410Z,1026.86
2017-01-21T06:41:01.801Z,1026.92
2017-01-21T06:42:13.192Z,1026.92
2017-01-21T06:43:24.626Z,1026.89
2017-01-21T06:44:36.015Z,1026.92
2017-01-21T06:45:47.412Z,1026.95
2017-01-21T06:46:58.816Z,1026.93
2017-01-21T06:48:10.213Z,1026.9
2017-01-21T06:49:21.657Z,1026.9
2017-01-21T06:50:33.054Z,1026.91
2017-01-21T06:51:44.477Z,1026.89
2017-01-21T06:52:55.882Z,1026.88
2017-01-21T06:54:07.276Z,1026.86
2017-01-21T06:55:18.715Z,1026.91
2017-01-21T06:56:30.108Z,1026.89
2017-01-21T06:57:41.503Z,1026.87
2017-01-21T06:58:52.903Z,1026.9
2017-01-21T07:00:04.292Z,1026.87
2017-01-21T07:01:15.725Z,1026.88
2017-01-21T07:02:27.129Z,1026.89
2017-01-21T07:03:38.522Z,1026.88
2017-01-21T07:04:50.130Z,1026.85
2017-01-21T07:06:01.526Z,1026.87
2017-01-21T07:07:13.174Z,1026.9
2017-01-21T07:08:24.786Z,1026.89
2017-01-21T07:09:36.183Z,1026.88
2017-01-21T07:10:47.584Z,1026.87
2017-01-21T07:11:58.978Z,1026.89
2017-01-21T07:13:10.424Z,1026.87
2017-01-21T07:14:21.813Z,1026.85
2017-01-21T07:15:33.201Z,1026.78
2017-01-21T07:16:44.593Z,1026.79
2017-01-21T07:17:55.987Z,1026.79
2017-01-21T07:19:07.624Z,1026.77
2017-01-21T07:20:19.215Z,1026.8
2017-01-21T07:21:30.621Z,1026.77
2017-01-21T07:22:42.221Z,1026.73
2017-01-21T07:23:53.613Z,1026.72
2017-01-21T07:25:05.063Z,1026.69
2017-01-21T07:26:16.461Z,1026.69
2017-01-21T07:27:28.058Z,1026.7
2017-01-21T07:28:39.453Z,1026.75
2017-01-21T07:29:50.842Z,1026.71
2017-01-21T07:31:02.285Z,1026.71
2017-01-21T07:32:13.671Z,1026.79
2017-01-21T07:33:25.070Z,1026.76
2017-01-21T07:34:36.472Z,1026.79
2017-01-21T07:35:47.874Z,1026.72
2017-01-21T07:36:59.322Z,1026.77
2017-01-21T07:38:10.714Z,1026.83
2017-01-21T07:39:22.306Z,1026.79
2017-01-21T07:40:33.697Z,1026.87
2017-01-21T07:41:45.094Z,1026.84
2017-01-21T07:42:56.544Z,1026.82
2017-01-21T07:44:08.148Z,1026.8
2017-01-21T07:45:19.534Z,1026.83
2017-01-21T07:46:30.930Z,1026.86
2017-01-21T07:47:42.323Z,1026.86
2017-01-21T07:48:53.721Z,1026.87
2017-01-21T07:50:05.116Z,1026.87
2017-01-21T07:51:16.508Z,1026.89
2017-01-21T07:52:27.903Z,1026.88
2017-01-21T07:53:39.308Z,1026.9
2017-01-21T07:54:50.743Z,1026.97
2017-01-21T07:56:02.136Z,1026.93
2017-01-21T07:57:13.533Z,1026.93
2017-01-21T07:58:24.933Z,1026.92
2017-01-21T07:59:36.377Z,1026.88
2017-01-21T08:00:47.773Z,1026.81
2017-01-21T08:01:59.160Z,1026.82
2017-01-21T08:03:10.763Z,1026.79
2017-01-21T08:04:22.353Z,1026.8
2017-01-21T08:05:34.001Z,1026.81
2017-01-21T08:06:45.798Z,1026.83
2017-01-21T08:07:57.393Z,1026.8
2017-01-21T08:09:08.996Z,1026.88
2017-01-21T08:10:20.400Z,1026.88
2017-01-21T08:11:31.850Z,1026.94
2017-01-21T08:12:43.238Z,1026.91
2017-01-21T08:13:54.640Z,1026.96
2017-01-21T08:15:06.037Z,1026.94
2017-01-21T08:16:17.463Z,1026.94
2017-01-21T08:17:29.113Z,1026.95
2017-01-21T08:18:40.511Z,1026.98
2017-01-21T08:19:52.106Z,1026.92
2017-01-21T08:21:03.499Z,1026.95
2017-01-21T08:22:14.897Z,1026.95
2017-01-21T08:23:26.547Z,1026.93
2017-01-21T08:24:37.944Z,1026.95
2017-01-21T08:25:49.337Z,1026.99
2017-01-21T08:27:00.731Z,1027.01
2017-01-21T08:28:12.131Z,1027.04
2017-01-21T08:29:23.776Z,1027.03
2017-01-21T08:30:35.174Z,1027.03
2017-01-21T08:31:46.572Z,1027
2017-01-21T08:32:57.969Z,1027.03
2017-01-21T08:34:09.557Z,1027.03
2017-01-21T08:35:21.005Z,1027.04
2017-01-21T08:36:32.400Z,1027.01
2017-01-21T08:37:43.797Z,1027.03
2017-01-21T08:38:55.183Z,1026.94
2017-01-21T08:40:06.579Z,1026.98
2017-01-21T08:41:18.033Z,1026.99
2017-01-21T08:42:29.435Z,1027.01
2017-01-21T08:43:41.040Z,1026.99
2017-01-21T08:44:52.637Z,1027.03
2017-01-21T08:46:04.041Z,1027.06
2017-01-21T08:47:15.488Z,1027.08
2017-01-21T08:48:26.915Z,1027.1
2017-01-21T08:49:38.516Z,1027.12
2017-01-21T08:50:49.911Z,1027.08
2017-01-21T08:52:01.308Z,1027.04
2017-01-21T08:53:12.785Z,1027.05
2017-01-21T08:54:24.199Z,1027.07
2017-01-21T08:55:35.595Z,1027.03
2017-01-21T08:56:47.198Z,1027.02
2017-01-21T08:57:58.595Z,1027.05
2017-01-21T08:59:10.039Z,1027.03
2017-01-21T09:00:21.643Z,1026.98
2017-01-21T09:01:33.059Z,1027.02
2017-01-21T09:02:44.486Z,1027.02
2017-01-21T09:03:55.892Z,1027.01
2017-01-21T09:05:07.537Z,1027.01
2017-01-21T09:06:18.941Z,1027.02
2017-01-21T09:07:30.348Z,1027.05
2017-01-21T09:08:41.751Z,1027.06
2017-01-21T09:09:53.150Z,1027.04
2017-01-21T09:11:04.603Z,1027.05
2017-01-21T09:12:16.013Z,1027.06
2017-01-21T09:13:27.422Z,1027.04
2017-01-21T09:14:38.822Z,1027.06
2017-01-21T09:15:50.230Z,1027.06
2017-01-21T09:17:01.677Z,1027.07
2017-01-21T09:18:13.080Z,1027.05
2017-01-21T09:19:24.488Z,1027.02
2017-01-21T09:20:35.887Z,1027.04
2017-01-21T09:21:47.289Z,1027.04
2017-01-21T09:22:58.749Z,1027.05
2017-01-21T09:24:10.162Z,1027
2017-01-21T09:25:21.568Z,1027.03
2017-01-21T09:26:32.980Z,1026.97
2017-01-21T09:27:44.414Z,1026.99
2017-01-21T09:28:55.875Z,1027.02
2017-01-21T09:30:07.281Z,1027.04
2017-01-21T09:31:18.691Z,1027.09
2017-01-21T09:32:30.108Z,1027.04
2017-01-21T09:33:41.526Z,1027.06
2017-01-21T09:34:52.997Z,1026.98
2017-01-21T09:36:04.404Z,1027.02
2017-01-21T09:37:16.012Z,1027.04
2017-01-21T09:38:27.627Z,1027.03
2017-01-21T09:39:39.032Z,1027.04
2017-01-21T09:40:50.490Z,1027.12
2017-01-21T09:42:02.306Z,1027.13
2017-01-21T09:43:13.916Z,1027.13
2017-01-21T09:44:25.327Z,1027.14
2017-01-21T09:45:36.744Z,1027.19
2017-01-21T09:46:48.204Z,1027.16
2017-01-21T09:47:59.642Z,1027.12
2017-01-21T09:49:11.065Z,1027.13
2017-01-21T09:50:22.479Z,1027.12
2017-01-21T09:51:34.100Z,1027.11
2017-01-21T09:52:45.562Z,1027.12
2017-01-21T09:53:56.970Z,1027.06
2017-01-21T09:55:08.388Z,1027.09
2017-01-21T09:56:19.808Z,1027.08
2017-01-21T09:57:31.622Z,1027.1
2017-01-21T09:58:43.278Z,1027.02
2017-01-21T09:59:54.695Z,1026.99
2017-01-21T10:01:06.110Z,1027.02
2017-01-21T10:02:17.525Z,1027.02
2017-01-21T10:03:29.141Z,1026.93
2017-01-21T10:04:40.612Z,1026.91
2017-01-21T10:05:52.236Z,1026.93
2017-01-21T10:07:03.655Z,1026.93
2017-01-21T10:08:15.282Z,1026.89
2017-01-21T10:09:26.690Z,1026.94
2017-01-21T10:10:38.179Z,1026.91
2017-01-21T10:11:49.589Z,1026.87
2017-01-21T10:13:01.007Z,1026.9
2017-01-21T10:14:12.427Z,1026.86
2017-01-21T10:15:23.843Z,1026.85
2017-01-21T10:16:35.499Z,1026.84
2017-01-21T10:17:46.923Z,1026.87
2017-01-21T10:18:58.540Z,1026.88
2017-01-21T10:20:09.954Z,1026.86
2017-01-21T10:21:21.372Z,1026.87
2017-01-21T10:22:32.832Z,1026.86
2017-01-21T10:23:44.250Z,1026.85
2017-01-21T10:24:55.667Z,1026.8
2017-01-21T10:26:07.081Z,1026.82
2017-01-21T10:27:18.496Z,1026.81
2017-01-21T10:28:30.170Z,1026.79
2017-01-21T10:29:41.799Z,1026.81
2017-01-21T10:30:53.423Z,1026.78
2017-01-21T10:32:04.836Z,1026.8
2017-01-21T10:33:16.252Z,1026.77
2017-01-21T10:34:27.927Z,1026.77
2017-01-21T10:35:39.342Z,1026.76
2017-01-21T10:36:50.789Z,1026.71
2017-01-21T10:38:02.206Z,1026.78
2017-01-21T10:39:13.621Z,1026.72
2017-01-21T10:40:25.091Z,1026.7
2017-01-21T10:41:36.511Z,1026.69
2017-01-21T10:42:47.936Z,1026.68
2017-01-21T10:43:59.355Z,1026.74
2017-01-21T10:45:10.781Z,1026.69
2017-01-21T10:46:22.248Z,1026.66
2017-01-21T10:47:33.858Z,1026.65
2017-01-21T10:48:45.278Z,1026.6
2017-01-21T10:49:56.702Z,1026.57
2017-01-21T10:51:08.321Z,1026.57
2017-01-21T10:52:19.792Z,1026.59
2017-01-21T10:53:31.206Z,1026.54
2017-01-21T10:54:42.616Z,1026.51
2017-01-21T10:55:54.033Z,1026.52
2017-01-21T10:57:05.654Z,1026.52
2017-01-21T10:58:17.129Z,1026.51
2017-01-21T10:59:28.550Z,1026.5
2017-01-21T11:00:39.980Z,1026.52
2017-01-21T11:01:51.402Z,1026.51
2017-01-21T11:03:02.816Z,1026.46
2017-01-21T11:04:14.485Z,1026.45
2017-01-21T11:05:26.095Z,1026.44
2017-01-21T11:06:37.718Z,1026.35
2017-01-21T11:07:49.136Z,1026.38
2017-01-21T11:09:00.552Z,1026.3
2017-01-21T11:10:12.013Z,1026.37
2017-01-21T11:11:23.423Z,1026.38
2017-01-21T11:12:34.856Z,1026.38
2017-01-21T11:13:46.273Z,1026.31
2017-01-21T11:14:57.901Z,1026.34
2017-01-21T11:16:09.363Z,1026.36
2017-01-21T11:17:20.771Z,1026.34
2017-01-21T11:18:32.252Z,1026.32
2017-01-21T11:19:43.871Z,1026.29
2017-01-21T11:20:55.283Z,1026.31
2017-01-21T11:22:06.747Z,1026.32
2017-01-21T11:23:18.167Z,1026.32
2017-01-21T11:24:29.788Z,1026.34
2017-01-21T11:25:41.400Z,1026.31
2017-01-21T11:26:53.039Z,1026.26
2017-01-21T11:28:04.511Z,1026.24
2017-01-21T11:29:15.927Z,1026.22
2017-01-21T11:30:27.337Z,1026.2
2017-01-21T11:31:38.745Z,1026.2
2017-01-21T11:32:50.155Z,1026.21
2017-01-21T11:34:01.614Z,1026.19
2017-01-21T11:35:13.235Z,1026.17
2017-01-21T11:36:24.644Z,1026.13
2017-01-21T11:37:36.055Z,1026.1
2017-01-21T11:38:47.478Z,1026.08
2017-01-21T11:39:58.938Z,1026.04
2017-01-21T11:41:10.357Z,1026.07
2017-01-21T11:42:21.763Z,1026.06
2017-01-21T11:43:33.175Z,1026.07
2017-01-21T11:44:44.590Z,1026.23
2017-01-21T11:45:56.056Z,1026.35
2017-01-21T11:47:07.465Z,1026.37
2017-01-21T11:48:19.073Z,1026.12
2017-01-21T11:49:30.487Z,1026.08
2017-01-21T11:50:41.890Z,1026.08
2017-01-21T11:51:53.347Z,1026.15
2017-01-21T11:53:04.952Z,1026.21
2017-01-21T11:54:16.359Z,1026.08
2017-01-21T11:55:27.766Z,1026.05
2017-01-21T11:56:39.375Z,1026.17
2017-01-21T11:57:51.036Z,1026.22
2017-01-21T11:59:02.443Z,1026.17
2017-01-21T12:00:13.852Z,1026.12
2017-01-21T12:01:25.258Z,1026.15
2017-01-21T12:02:36.661Z,1026.09
2017-01-21T12:03:48.129Z,1025.96
2017-01-21T12:04:59.547Z,1025.84
2017-01-21T12:06:11.153Z,1025.84
2017-01-21T12:07:22.558Z,1025.78
2017-01-21T12:08:33.967Z,1025.79
2017-01-21T12:09:45.423Z,1025.79
2017-01-21T12:10:56.871Z,1025.77
2017-01-21T12:12:08.305Z,1025.69
2017-01-21T12:13:19.708Z,1025.68
2017-01-21T12:14:31.123Z,1025.68
2017-01-21T12:15:42.780Z,1025.69
2017-01-21T12:16:54.193Z,1025.66
2017-01-21T12:18:05.806Z,1025.62
2017-01-21T12:19:17.423Z,1025.6
2017-01-21T12:20:28.827Z,1025.62
2017-01-21T12:21:40.316Z,1025.55
2017-01-21T12:22:51.727Z,1025.56
2017-01-21T12:24:03.140Z,1025.57
2017-01-21T12:25:14.555Z,1025.54
2017-01-21T12:26:25.967Z,1025.52
2017-01-21T12:27:37.416Z,1025.55
2017-01-21T12:28:48.823Z,1025.56
2017-01-21T12:30:00.435Z,1025.58
2017-01-21T12:31:11.838Z,1025.49
2017-01-21T12:32:23.250Z,1025.47
2017-01-21T12:33:34.710Z,1025.51
2017-01-21T12:34:46.117Z,1025.47
2017-01-21T12:35:57.515Z,1025.43
2017-01-21T12:37:08.928Z,1025.37
2017-01-21T12:38:20.338Z,1025.41
2017-01-21T12:39:31.795Z,1025.39
2017-01-21T12:40:43.403Z,1025.41
2017-01-21T12:41:55.023Z,1025.43
2017-01-21T12:43:06.438Z,1025.38
2017-01-21T12:44:18.047Z,1025.36
2017-01-21T12:45:29.507Z,1025.32
2017-01-21T12:46:40.920Z,1025.27
2017-01-21T12:47:52.331Z,1025.33
2017-01-21T12:49:03.739Z,1025.31
2017-01-21T12:50:15.143Z,1025.38
2017-01-21T12:51:26.802Z,1025.23
2017-01-21T12:52:38.209Z,1025.27
2017-01-21T12:53:49.615Z,1025.25
2017-01-21T12:55:01.019Z,1025.22
2017-01-21T12:56:12.423Z,1025.19
2017-01-21T12:57:23.881Z,1025.25
2017-01-21T12:58:35.288Z,1025.17
2017-01-21T12:59:46.901Z,1025.16
2017-01-21T13:00:58.306Z,1025.17
2017-01-21T13:02:09.711Z,1025.16
2017-01-21T13:03:21.161Z,1025.17
2017-01-21T13:04:32.593Z,1025.2
2017-01-21T13:05:44.001Z,1025.21
2017-01-21T13:06:55.612Z,1025.21
2017-01-21T13:08:07.217Z,1025.18
2017-01-21T13:09:18.697Z,1025.18
2017-01-21T13:10:30.105Z,1025.22
2017-01-21T13:11:41.520Z,1025.2
2017-01-21T13:12:52.928Z,1025.2
2017-01-21T13:14:04.335Z,1025.15
2017-01-21T13:15:15.796Z,1025.12
2017-01-21T13:16:27.195Z,1025.07
2017-01-21T13:17:38.600Z,1025.04
2017-01-21T13:18:50.009Z,1025.01
2017-01-21T13:20:01.417Z,1024.97
2017-01-21T13:21:12.877Z,1024.93
2017-01-21T13:22:24.285Z,1024.95
2017-01-21T13:23:35.695Z,1024.94
2017-01-21T13:24:47.297Z,1024.89
2017-01-21T13:25:58.693Z,1024.86
2017-01-21T13:27:10.364Z,1024.9
2017-01-21T13:28:21.764Z,1024.93
2017-01-21T13:29:33.180Z,1024.91
2017-01-21T13:30:44.595Z,1024.91
2017-01-21T13:31:55.999Z,1024.93
2017-01-21T13:33:07.456Z,1024.88
2017-01-21T13:34:19.063Z,1024.9
2017-01-21T13:35:30.498Z,1024.88
2017-01-21T13:36:42.098Z,1024.91
2017-01-21T13:37:53.505Z,1024.88
2017-01-21T13:39:04.961Z,1024.87
2017-01-21T13:40:16.378Z,1024.86
2017-01-21T13:41:27.985Z,1024.84
2017-01-21T13:42:39.391Z,1024.8
2017-01-21T13:43:50.803Z,1024.76
2017-01-21T13:45:02.254Z,1024.73
2017-01-21T13:46:13.860Z,1024.74
2017-01-21T13:47:25.260Z,1024.75
2017-01-21T13:48:36.669Z,1024.77
2017-01-21T13:49:48.075Z,1024.76
2017-01-21T13:50:59.724Z,1024.72
2017-01-21T13:52:11.324Z,1024.71
2017-01-21T13:53:22.728Z,1024.73
2017-01-21T13:54:34.134Z,1024.75
2017-01-21T13:55:45.546Z,1024.75
2017-01-21T13:56:57.196Z,1024.76
2017-01-21T13:58:08.600Z,1024.76
2017-01-21T13:59:20.008Z,1024.72
2017-01-21T14:00:31.413Z,1024.76
2017-01-21T14:01:42.822Z,1024.71
2017-01-21T14:02:54.276Z,1024.73
2017-01-21T14:04:05.682Z,1024.76
2017-01-21T14:05:17.096Z,1024.73
2017-01-21T14:06:28.494Z,1024.74
2017-01-21T14:07:39.893Z,1024.74
2017-01-21T14:08:51.377Z,1024.71
2017-01-21T14:10:02.779Z,1024.71
2017-01-21T14:11:14.183Z,1024.72
2017-01-21T14:12:25.592Z,1024.75
2017-01-21T14:13:36.996Z,1024.71
2017-01-21T14:14:48.452Z,1024.7
2017-01-21T14:15:59.845Z,1024.68
2017-01-21T14:17:11.251Z,1024.64
2017-01-21T14:18:22.649Z,1024.64
2017-01-21T14:19:34.254Z,1024.66
2017-01-21T14:20:45.708Z,1024.71
2017-01-21T14:21:57.111Z,1024.7
2017-01-21T14:23:08.717Z,1024.7
2017-01-21T14:24:20.120Z,1024.72
2017-01-21T14:25:31.524Z,1024.68
2017-01-21T14:26:43.182Z,1024.71
2017-01-21T14:27:54.607Z,1024.71